createdAt,value
2022-10-18T00:00:06.172Z,94439.38
2022-10-18T00:02:32.934Z,94445.34
2022-10-18T00:04:59.601Z,94416.31
2022-10-18T00:07:26.224Z,94447.63
2022-10-18T00:09:52.936Z,94443.88
2022-10-18T00:12:19.684Z,94427.56
2022-10-18T00:14:50.113Z,94419.69
2022-10-18T00:17:16.848Z,94442.66
2022-10-18T00:19:43.801Z,94429.13
2022-10-18T00:22:10.428Z,94424.69
2022-10-18T00:24:37.165Z,94436.31
2022-10-18T00:27:04.103Z,94447.34
2022-10-18T00:29:30.719Z,94444.13
2022-10-18T00:31:57.308Z,94439.19
2022-10-18T00:34:23.943Z,94428.22
2022-10-18T00:36:50.569Z,94439.38
2022-10-18T00:39:20.951Z,94441.69
2022-10-18T00:41:48.527Z,94444.63
2022-10-18T00:44:15.091Z,94443.69
2022-10-18T00:46:44.777Z,94437.06
2022-10-18T00:49:19.142Z,94436.53
2022-10-18T00:51:51.255Z,94432.59
2022-10-18T00:54:20.852Z,94437.91
2022-10-18T00:56:47.608Z,94441.19
2022-10-18T00:59:16.394Z,94441.31
2022-10-18T01:01:43.794Z,94433.09
2022-10-18T01:04:12.257Z,94442.59
2022-10-18T01:07:03.710Z,94363.03
2022-10-18T01:09:36.405Z,94431.81
2022-10-18T01:12:17.906Z,94419.78
2022-10-18T01:14:58.427Z,94437.00
2022-10-18T01:18:00.287Z,94437.75
2022-10-18T01:20:55.337Z,94435.16
2022-10-18T01:23:24.668Z,94428.41
2022-10-18T01:26:28.467Z,94421.47
2022-10-18T01:29:24.369Z,94431.88
2022-10-18T01:31:59.540Z,94437.00
2022-10-18T01:34:31.471Z,94427.47
2022-10-18T01:37:01.172Z,94389.53
2022-10-18T01:39:35.510Z,94431.41
2022-10-18T01:42:08.202Z,94428.66
2022-10-18T01:44:37.751Z,94434.63
2022-10-18T01:47:07.796Z,94438.41
2022-10-18T01:49:34.438Z,94435.16
2022-10-18T01:52:01.227Z,94432.72
2022-10-18T01:54:34.574Z,94434.06
2022-10-18T01:57:04.053Z,94425.75
2022-10-18T01:59:35.097Z,94412.53
2022-10-18T02:02:19.684Z,94424.81
2022-10-18T02:04:59.617Z,94423.81
2022-10-18T02:07:55.431Z,94428.41
2022-10-18T02:10:43.392Z,94438.53
2022-10-18T02:13:17.267Z,94434.72
2022-10-18T02:15:48.510Z,94431.88
2022-10-18T02:18:20.607Z,94415.56
2022-10-18T02:20:48.824Z,94433.59
2022-10-18T02:23:20.058Z,94438.28
2022-10-18T02:25:46.752Z,94440.97
2022-10-18T02:28:13.420Z,94436.56
2022-10-18T02:31:03.251Z,94430.97
2022-10-18T02:33:46.133Z,94438.22
2022-10-18T02:36:18.590Z,94415.66
2022-10-18T02:38:46.719Z,94410.06
2022-10-18T02:41:22.665Z,94437.66
2022-10-18T02:43:49.397Z,94444.88
2022-10-18T02:46:16.282Z,94435.94
2022-10-18T02:48:42.977Z,94451.47
2022-10-18T02:51:09.535Z,94433.28
2022-10-18T02:53:36.133Z,94441.41
2022-10-18T02:56:03.306Z,94451.28
2022-10-18T02:58:29.947Z,94441.94
2022-10-18T03:00:56.535Z,94447.81
2022-10-18T03:03:23.182Z,94454.97
2022-10-18T03:05:50.671Z,94445.72
2022-10-18T03:08:17.836Z,94432.09
2022-10-18T03:10:45.739Z,94458.09
2022-10-18T03:13:12.844Z,94460.09
2022-10-18T03:15:39.873Z,94455.53
2022-10-18T03:18:06.497Z,94452.31
2022-10-18T03:20:34.129Z,94445.44
2022-10-18T03:23:00.795Z,94460.84
2022-10-18T03:25:27.411Z,94445.91
2022-10-18T03:27:53.974Z,94451.47
2022-10-18T03:30:20.559Z,94448.19
2022-10-18T03:32:47.151Z,94461.75
2022-10-18T03:35:13.801Z,94458.25
2022-10-18T03:37:40.816Z,94460.91
2022-10-18T03:40:08.213Z,94455.59
2022-10-18T03:42:35.079Z,94462.47
2022-10-18T03:45:01.873Z,94450.75
2022-10-18T03:47:28.601Z,94456.63
2022-10-18T03:49:57.199Z,94458.66
2022-10-18T03:52:24.282Z,94454.97
2022-10-18T03:54:50.989Z,94460.47
2022-10-18T03:57:17.576Z,94446.00
2022-10-18T03:59:44.139Z,94448.94
2022-10-18T04:02:10.783Z,94448.94
2022-10-18T04:04:37.454Z,94452.41
2022-10-18T04:07:04.102Z,94468.34
2022-10-18T04:09:30.720Z,94443.06
2022-10-18T04:11:57.395Z,94471.84
2022-10-18T04:14:24.048Z,94471.75
2022-10-18T04:16:50.725Z,94468.16
2022-10-18T04:19:17.463Z,94476.41
2022-10-18T04:21:44.056Z,94465.13
2022-10-18T04:24:10.687Z,94461.19
2022-10-18T04:26:37.358Z,94490.53
2022-10-18T04:29:04.323Z,94501.69
2022-10-18T04:31:31.350Z,94459.88
2022-10-18T04:33:57.964Z,94489.19
2022-10-18T04:36:24.675Z,94498.56
2022-10-18T04:38:51.320Z,94499.66
2022-10-18T04:41:17.979Z,94507.34
2022-10-18T04:46:12.235Z,94501.44
2022-10-18T04:48:39.555Z,94504.16
2022-10-18T04:51:06.264Z,94493.66
2022-10-18T04:53:33.117Z,94510.53
2022-10-18T04:55:59.901Z,94515.00
2022-10-18T04:58:27.092Z,94516.56
2022-10-18T05:00:53.685Z,94510.88
2022-10-18T05:03:20.446Z,94513.00
2022-10-18T05:06:01.457Z,94517.00
2022-10-18T05:08:30.362Z,94519.28
2022-10-18T05:10:57.160Z,94510.28
2022-10-18T05:13:23.932Z,94519.06
2022-10-18T05:15:50.771Z,94509.69
2022-10-18T05:18:17.383Z,94510.53
2022-10-18T05:20:44.263Z,94500.38
2022-10-18T05:23:11.081Z,94499.03
2022-10-18T05:25:39.566Z,94472.41
2022-10-18T05:28:15.664Z,94511.38
2022-10-18T05:30:52.972Z,94509.25
2022-10-18T05:33:19.567Z,94470.72
2022-10-18T05:35:46.292Z,94512.09
2022-10-18T05:38:12.951Z,94509.25
2022-10-18T05:40:39.785Z,94510.69
2022-10-18T05:43:06.387Z,94505.38
2022-10-18T05:45:33.087Z,94486.16
2022-10-18T05:47:59.842Z,94475.66
2022-10-18T05:50:26.435Z,94494.91
2022-10-18T05:53:02.727Z,94491.47
2022-10-18T05:55:39.336Z,94489.94
2022-10-18T05:58:06.033Z,94500.19
2022-10-18T06:00:32.679Z,94485.41
2022-10-18T06:03:00.394Z,94498.84
2022-10-18T06:05:27.659Z,94505.28
2022-10-18T06:07:54.328Z,94503.53
2022-10-18T06:10:21.064Z,94512.81
2022-10-18T06:12:47.704Z,94492.28
2022-10-18T06:15:14.479Z,94513.88
2022-10-18T06:17:41.505Z,94517.31
2022-10-18T06:20:08.756Z,94498.44
2022-10-18T06:22:35.537Z,94513.19
2022-10-18T06:25:02.299Z,94510.97
2022-10-18T06:27:29.193Z,94514.28
2022-10-18T06:29:55.932Z,94511.97
2022-10-18T06:32:22.524Z,94521.75
2022-10-18T06:34:49.157Z,94533.47
2022-10-18T06:37:15.791Z,94532.72
2022-10-18T06:39:42.413Z,94504.09
2022-10-18T06:42:08.987Z,94536.84
2022-10-18T06:44:35.614Z,94525.41
2022-10-18T06:47:02.302Z,94533.81
2022-10-18T06:49:28.981Z,94530.88
2022-10-18T06:51:55.663Z,94527.03
2022-10-18T06:54:22.435Z,94526.94
2022-10-18T06:56:49.007Z,94529.03
2022-10-18T06:59:15.887Z,94502.81
2022-10-18T07:01:43.514Z,94499.44
2022-10-18T07:04:10.261Z,94526.22
2022-10-18T07:06:36.869Z,94521.28
2022-10-18T07:09:03.948Z,94514.41
2022-10-18T07:11:30.555Z,94506.81
2022-10-18T07:14:04.941Z,94523.72
2022-10-18T07:16:33.137Z,94503.31
2022-10-18T07:18:59.773Z,94494.16
2022-10-18T07:21:27.012Z,94509.66
2022-10-18T07:23:53.822Z,94495.22
2022-10-18T07:26:20.409Z,94502.97
2022-10-18T07:28:49.922Z,94505.72
2022-10-18T07:31:17.212Z,94506.59
2022-10-18T07:33:43.961Z,94499.69
2022-10-18T07:36:12.372Z,94486.28
2022-10-18T07:38:39.788Z,94477.59
2022-10-18T07:41:07.627Z,94478.44
2022-10-18T07:43:35.631Z,94448.81
2022-10-18T07:46:05.007Z,94478.50
2022-10-18T07:48:32.057Z,94480.56
2022-10-18T07:51:02.636Z,94462.75
2022-10-18T07:53:30.074Z,94481.22
2022-10-18T07:56:03.391Z,94474.16
2022-10-18T07:58:33.816Z,94490.63
2022-10-18T08:01:05.272Z,94493.31
2022-10-18T08:03:32.051Z,94486.19
2022-10-18T08:05:58.791Z,94485.81
2022-10-18T08:08:26.796Z,94485.88
2022-10-18T08:10:53.679Z,94481.31
2022-10-18T08:13:21.018Z,94489.59
2022-10-18T08:15:47.697Z,94471.88
2022-10-18T08:18:14.412Z,94476.81
2022-10-18T08:20:45.199Z,94471.22
2022-10-18T08:23:11.872Z,94441.66
2022-10-18T08:25:38.700Z,94473.56
2022-10-18T08:28:05.600Z,94475.44
2022-10-18T08:30:32.227Z,94460.25
2022-10-18T08:32:58.902Z,94467.22
2022-10-18T08:35:25.500Z,94464.34
2022-10-18T08:37:52.129Z,94470.53
2022-10-18T08:40:19.044Z,94462.69
2022-10-18T08:42:48.818Z,94461.06
2022-10-18T08:45:30.046Z,94461.06
2022-10-18T08:48:05.511Z,94457.78
2022-10-18T08:50:36.729Z,94467.63
2022-10-18T08:53:49.216Z,94447.06
2022-10-18T08:56:21.137Z,94446.25
2022-10-18T08:58:47.752Z,94473.59
2022-10-18T09:01:55.815Z,94474.97
2022-10-18T09:04:44.272Z,94463.44
2022-10-18T09:07:32.713Z,94462.81
2022-10-18T09:10:27.240Z,94447.75
2022-10-18T09:13:31.001Z,94440.69
2022-10-18T09:16:02.892Z,94442.69
2022-10-18T09:19:02.575Z,94430.97
2022-10-18T09:21:43.848Z,94442.63
2022-10-18T09:24:22.366Z,94435.97
2022-10-18T09:26:53.909Z,94432.84
2022-10-18T09:29:32.703Z,94435.78
2022-10-18T09:32:17.744Z,94437.97
2022-10-18T09:34:56.655Z,94424.81
2022-10-18T09:37:27.176Z,94418.75
2022-10-18T09:40:04.760Z,94421.44
2022-10-18T09:42:44.680Z,94414.59
2022-10-18T09:45:33.044Z,94397.75
2022-10-18T09:48:03.750Z,94416.03
2022-10-18T09:50:42.444Z,94426.50
2022-10-18T09:53:28.223Z,94386.78
2022-10-18T09:56:05.725Z,94418.81
2022-10-18T09:58:44.357Z,94410.75
2022-10-18T10:01:14.304Z,94409.09
2022-10-18T10:03:42.525Z,94388.88
2022-10-18T10:06:11.848Z,94404.44
2022-10-18T10:08:43.925Z,94415.53
2022-10-18T10:11:45.314Z,94419.50
2022-10-18T10:16:56.635Z,94422.50
2022-10-18T10:19:35.379Z,94408.47
2022-10-18T10:22:13.146Z,94405.66
2022-10-18T10:24:51.917Z,94386.50
2022-10-18T10:27:41.051Z,94412.59
2022-10-18T10:30:30.078Z,94406.53
2022-10-18T10:32:57.604Z,94401.16
2022-10-18T10:35:42.136Z,94400.31
2022-10-18T10:38:28.843Z,94408.66
2022-10-18T10:40:56.601Z,94395.22
2022-10-18T10:43:37.663Z,94402.25
2022-10-18T10:46:36.322Z,94412.47
2022-10-18T10:49:35.103Z,94408.03
2022-10-18T10:52:08.226Z,94396.16
2022-10-18T10:54:38.983Z,94397.44
2022-10-18T10:57:12.507Z,94400.41
2022-10-18T10:59:45.665Z,94370.06
2022-10-18T11:02:18.299Z,94399.56
2022-10-18T11:04:50.570Z,94395.75
2022-10-18T11:07:29.140Z,94403.47
2022-10-18T11:10:10.725Z,94394.94
2022-10-18T11:12:40.011Z,94388.25
2022-10-18T11:15:18.198Z,94393.97
2022-10-18T11:20:27.026Z,94388.28
2022-10-18T11:23:00.814Z,94376.75
2022-10-18T11:25:41.832Z,94380.56
2022-10-18T11:28:25.717Z,94372.16
2022-10-18T11:31:12.037Z,94351.25
2022-10-18T11:34:07.004Z,94365.84
2022-10-18T11:37:22.905Z,94353.13
2022-10-18T11:40:00.301Z,94357.94
2022-10-18T11:42:47.759Z,94356.47
2022-10-18T11:45:33.208Z,94361.84
2022-10-18T11:48:12.324Z,94358.09
2022-10-18T11:51:00.483Z,94329.72
2022-10-18T11:53:36.983Z,94349.88
2022-10-18T11:56:29.594Z,94347.47
2022-10-18T11:59:02.041Z,94346.34
2022-10-18T12:01:53.261Z,94335.34
2022-10-18T12:04:22.228Z,94334.44
2022-10-18T12:06:52.155Z,94316.75
2022-10-18T12:12:38.272Z,94317.94
2022-10-18T12:15:13.787Z,94318.13
2022-10-18T12:17:49.644Z,94314.38
2022-10-18T12:20:34.968Z,94310.91
2022-10-18T12:23:05.860Z,94307.53
2022-10-18T12:25:43.007Z,94320.22
2022-10-18T12:28:42.006Z,94302.75
2022-10-18T12:31:14.455Z,94302.50
2022-10-18T12:33:45.955Z,94300.03
2022-10-18T12:36:22.862Z,94289.22
2022-10-18T12:38:54.605Z,94285.22
2022-10-18T12:41:32.030Z,94289.28
2022-10-18T12:44:17.516Z,94273.72
2022-10-18T12:46:52.251Z,94277.38
2022-10-18T12:49:29.053Z,94268.84
2022-10-18T12:52:08.330Z,94272.66
2022-10-18T12:54:38.407Z,94267.94
2022-10-18T12:57:17.726Z,94269.19
2022-10-18T12:59:44.412Z,94264.22
2022-10-18T13:02:25.404Z,94264.88
2022-10-18T13:04:52.051Z,94269.13
2022-10-18T13:07:30.921Z,94252.94
2022-10-18T13:10:09.665Z,94247.94
2022-10-18T13:12:49.712Z,94248.03
2022-10-18T13:15:34.194Z,94244.13
2022-10-18T13:18:16.801Z,94258.97
2022-10-18T13:20:56.028Z,94230.50
2022-10-18T13:23:37.822Z,94247.22
2022-10-18T13:26:38.877Z,94246.72
2022-10-18T13:29:26.760Z,94239.63
2022-10-18T13:34:42.751Z,94227.63
2022-10-18T13:37:10.217Z,94243.25
2022-10-18T13:39:39.726Z,94241.28
2022-10-18T13:42:15.573Z,94232.94
2022-10-18T13:44:46.436Z,94214.53
2022-10-18T13:47:12.996Z,94230.13
2022-10-18T13:49:39.616Z,94227.66
2022-10-18T13:52:13.805Z,94220.56
2022-10-18T13:54:49.269Z,94231.81
2022-10-18T13:57:30.968Z,94237.31
2022-10-18T14:00:28.350Z,94234.66
2022-10-18T14:03:55.143Z,94243.66
2022-10-18T14:06:27.126Z,94221.91
2022-10-18T14:09:26.274Z,94226.84
2022-10-18T14:12:28.963Z,94228.84
2022-10-18T14:15:18.020Z,94225.06
2022-10-18T14:17:49.249Z,94228.84
2022-10-18T14:20:49.451Z,94236.69
2022-10-18T14:23:26.908Z,94240.28
2022-10-18T14:26:06.807Z,94206.81
2022-10-18T14:28:55.307Z,94232.31
2022-10-18T14:31:20.417Z,94239.88
2022-10-18T14:33:57.305Z,94230.75
2022-10-18T14:36:45.977Z,94223.03
2022-10-18T14:39:22.507Z,94234.94
2022-10-18T14:41:55.170Z,94234.53
2022-10-18T14:44:29.943Z,94225.06
2022-10-18T14:47:01.176Z,94233.75
2022-10-18T14:49:27.984Z,94239.56
2022-10-18T14:52:00.310Z,94246.66
2022-10-18T14:54:33.674Z,94243.81
2022-10-18T14:57:02.180Z,94230.81
2022-10-18T14:59:32.797Z,94245.97
2022-10-18T15:02:10.853Z,94253.88
2022-10-18T15:04:37.488Z,94249.28
2022-10-18T15:07:07.172Z,94249.19
2022-10-18T15:09:36.813Z,94247.00
2022-10-18T15:12:06.436Z,94252.47
2022-10-18T15:14:34.736Z,94241.41
2022-10-18T15:17:27.516Z,94243.63
2022-10-18T15:20:03.406Z,94247.97
2022-10-18T15:22:33.517Z,94250.97
2022-10-18T15:25:29.334Z,94248.59
2022-10-18T15:28:00.138Z,94245.19
2022-10-18T15:30:47.043Z,94250.03
2022-10-18T15:33:23.172Z,94241.81
2022-10-18T15:35:52.116Z,94242.84
2022-10-18T15:38:28.019Z,94242.81
2022-10-18T15:40:55.031Z,94243.75
2022-10-18T15:43:24.385Z,94237.03
2022-10-18T15:46:00.039Z,94233.63
2022-10-18T15:48:42.017Z,94215.50
2022-10-18T15:51:32.612Z,94216.47
2022-10-18T15:53:59.246Z,94230.38
2022-10-18T15:56:27.800Z,94223.75
2022-10-18T15:58:57.000Z,94222.72
2022-10-18T16:01:32.532Z,94203.31
2022-10-18T16:04:00.263Z,94226.81
2022-10-18T16:06:26.899Z,94227.88
2022-10-18T16:08:53.622Z,94223.47
2022-10-18T16:11:25.273Z,94217.72
2022-10-18T16:13:55.175Z,94227.75
2022-10-18T16:16:27.249Z,94216.28
2022-10-18T16:18:54.876Z,94230.25
2022-10-18T16:21:25.804Z,94228.25
2022-10-18T16:23:52.657Z,94199.06
2022-10-18T16:26:20.150Z,94232.94
2022-10-18T16:28:48.028Z,94207.22
2022-10-18T16:31:22.939Z,94240.28
2022-10-18T16:33:50.856Z,94241.56
2022-10-18T16:36:23.041Z,94235.25
2022-10-18T16:38:50.202Z,94247.81
2022-10-18T16:41:17.191Z,94242.66
2022-10-18T16:43:46.266Z,94251.97
2022-10-18T16:46:16.748Z,94250.09
2022-10-18T16:48:44.352Z,94254.25
2022-10-18T16:51:11.728Z,94249.78
2022-10-18T16:53:38.518Z,94234.19
2022-10-18T16:56:12.049Z,94257.78
2022-10-18T16:58:38.733Z,94253.06
2022-10-18T17:01:08.121Z,94255.56
2022-10-18T17:03:35.784Z,94257.00
2022-10-18T17:06:02.704Z,94235.84
2022-10-18T17:08:29.460Z,94253.09
2022-10-18T17:10:58.191Z,94260.53
2022-10-18T17:13:26.335Z,94244.28
2022-10-18T17:15:53.691Z,94201.38
2022-10-18T17:18:26.448Z,94266.66
2022-10-18T17:20:53.553Z,94250.44
2022-10-18T17:23:20.315Z,94267.50
2022-10-18T17:25:59.074Z,94271.81
2022-10-18T17:28:33.882Z,94271.56
2022-10-18T17:31:00.809Z,94280.81
2022-10-18T17:33:27.467Z,94278.97
2022-10-18T17:35:54.136Z,94273.00
2022-10-18T17:38:20.878Z,94288.59
2022-10-18T17:40:47.713Z,94280.59
2022-10-18T17:43:14.521Z,94256.38
2022-10-18T17:45:55.687Z,94289.03
2022-10-18T17:48:23.840Z,94290.44
2022-10-18T17:50:50.694Z,94291.00
2022-10-18T17:53:22.501Z,94252.59
2022-10-18T17:55:49.456Z,94281.81
2022-10-18T17:58:16.223Z,94278.41
2022-10-18T18:00:43.026Z,94290.75
2022-10-18T18:03:09.782Z,94302.69
2022-10-18T18:05:36.487Z,94311.00
2022-10-18T18:08:04.127Z,94315.25
2022-10-18T18:10:34.677Z,94322.00
2022-10-18T18:13:02.072Z,94308.44
2022-10-18T18:15:28.782Z,94333.44
2022-10-18T18:17:57.607Z,94324.50
2022-10-18T18:20:25.594Z,94330.91
2022-10-18T18:22:52.546Z,94335.53
2022-10-18T18:25:19.361Z,94331.94
2022-10-18T18:27:45.999Z,94323.72
2022-10-18T18:30:12.903Z,94341.44
2022-10-18T18:32:39.828Z,94337.81
2022-10-18T18:35:06.745Z,94328.63
2022-10-18T18:37:33.455Z,94331.88
2022-10-18T18:40:00.131Z,94334.47
2022-10-18T18:42:26.883Z,94320.53
2022-10-18T18:44:53.453Z,94338.09
2022-10-18T18:47:23.301Z,94327.16
2022-10-18T18:49:51.444Z,94335.84
2022-10-18T18:52:18.156Z,94324.78
2022-10-18T18:54:45.032Z,94336.69
2022-10-18T18:57:11.712Z,94323.13
2022-10-18T18:59:38.535Z,94341.84
2022-10-18T19:02:05.566Z,94342.94
2022-10-18T19:04:32.924Z,94331.34
2022-10-18T19:06:59.640Z,94322.75
2022-10-18T19:09:27.386Z,94341.50
2022-10-18T19:11:56.184Z,94347.41
2022-10-18T19:14:25.145Z,94339.00
2022-10-18T19:17:01.613Z,94338.06
2022-10-18T19:19:30.216Z,94317.19
2022-10-18T19:21:59.858Z,94322.25
2022-10-18T19:24:28.761Z,94347.00
2022-10-18T19:27:01.066Z,94324.84
2022-10-18T19:29:36.407Z,94356.50
2022-10-18T19:32:07.158Z,94338.34
2022-10-18T19:34:34.973Z,94336.38
2022-10-18T19:37:01.727Z,94345.81
2022-10-18T19:39:34.189Z,94345.13
2022-10-18T19:42:03.721Z,94358.09
2022-10-18T19:44:32.844Z,94356.97
2022-10-18T19:46:59.932Z,94359.22
2022-10-18T19:49:28.581Z,94344.03
2022-10-18T19:51:55.959Z,94350.50
2022-10-18T19:54:23.066Z,94355.50
2022-10-18T19:56:50.173Z,94353.66
2022-10-18T19:59:17.713Z,94358.47
2022-10-18T20:01:45.299Z,94339.03
2022-10-18T20:04:13.072Z,94352.16
2022-10-18T20:06:40.294Z,94357.03
2022-10-18T20:09:09.043Z,94330.88
2022-10-18T20:11:36.208Z,94320.47
2022-10-18T20:14:03.184Z,94351.63
2022-10-18T20:16:32.388Z,94350.88
2022-10-18T20:19:04.644Z,94332.13
2022-10-18T20:21:35.755Z,94349.84
2022-10-18T20:24:05.482Z,94344.34
2022-10-18T20:26:33.068Z,94341.41
2022-10-18T20:28:59.995Z,94339.56
2022-10-18T20:31:32.173Z,94340.28
2022-10-18T20:34:02.659Z,94344.03
2022-10-18T20:36:31.410Z,94342.72
2022-10-18T20:38:58.704Z,94313.16
2022-10-18T20:41:27.121Z,94336.22
2022-10-18T20:43:55.938Z,94332.53
2022-10-18T20:46:23.072Z,94343.91
2022-10-18T20:48:50.903Z,94343.84
2022-10-18T20:51:18.521Z,94339.94
2022-10-18T20:53:45.494Z,94341.97
2022-10-18T20:56:14.413Z,94343.84
2022-10-18T20:58:43.444Z,94335.03
2022-10-18T21:01:13.981Z,94336.44
2022-10-18T21:03:43.088Z,94340.28
2022-10-18T21:06:18.661Z,94336.22
2022-10-18T21:08:46.313Z,94330.38
2022-10-18T21:11:14.225Z,94319.38
2022-10-18T21:13:41.021Z,94326.22
2022-10-18T21:16:08.004Z,94321.44
2022-10-18T21:18:36.060Z,94324.00
2022-10-18T21:21:14.784Z,94322.88
2022-10-18T21:23:42.936Z,94330.94
2022-10-18T21:26:15.403Z,94323.97
2022-10-18T21:28:42.182Z,94300.88
2022-10-18T21:31:14.548Z,94317.28
2022-10-18T21:33:42.074Z,94313.47
2022-10-18T21:36:09.252Z,94315.91
2022-10-18T21:38:36.054Z,94326.28
2022-10-18T21:41:07.958Z,94312.47
2022-10-18T21:43:34.625Z,94310.53
2022-10-18T21:46:01.396Z,94311.38
2022-10-18T21:48:28.198Z,94298.94
2022-10-18T21:50:54.817Z,94305.00
2022-10-18T21:53:21.899Z,94302.78
2022-10-18T21:55:49.056Z,94308.44
2022-10-18T21:58:15.688Z,94306.16
2022-10-18T22:00:42.306Z,94287.31
2022-10-18T22:03:13.536Z,94300.75
2022-10-18T22:05:40.125Z,94290.59
2022-10-18T22:08:07.591Z,94297.81
2022-10-18T22:10:34.294Z,94295.19
2022-10-18T22:13:01.424Z,94286.13
2022-10-18T22:15:28.057Z,94287.22
2022-10-18T22:17:54.765Z,94288.66
2022-10-18T22:20:21.382Z,94272.03
2022-10-18T22:22:48.050Z,94290.69
2022-10-18T22:25:14.839Z,94284.19
2022-10-18T22:27:41.476Z,94294.16
2022-10-18T22:30:08.584Z,94283.38
2022-10-18T22:32:35.273Z,94284.13
2022-10-18T22:35:02.398Z,94286.56
2022-10-18T22:37:29.233Z,94282.47
2022-10-18T22:39:56.135Z,94288.84
2022-10-18T22:42:22.818Z,94256.25
2022-10-18T22:44:49.388Z,94285.66
2022-10-18T22:47:16.058Z,94279.53
2022-10-18T22:49:42.695Z,94285.34
2022-10-18T22:52:09.336Z,94277.41
2022-10-18T22:54:38.652Z,94279.38
2022-10-18T22:57:05.273Z,94282.09
2022-10-18T22:59:31.857Z,94277.38
2022-10-18T23:01:58.520Z,94270.88
2022-10-18T23:04:25.218Z,94269.03
2022-10-18T23:06:51.844Z,94273.53
2022-10-18T23:09:18.458Z,94276.72
2022-10-18T23:11:46.976Z,94239.16
2022-10-18T23:14:13.688Z,94267.72
2022-10-18T23:16:40.377Z,94246.47
2022-10-18T23:19:07.112Z,94257.13
2022-10-18T23:21:34.289Z,94261.72
2022-10-18T23:24:01.320Z,94257.50
2022-10-18T23:26:28.228Z,94250.03
2022-10-18T23:28:55.255Z,94259.63
2022-10-18T23:31:24.899Z,94252.03
2022-10-18T23:33:53.687Z,94254.44
2022-10-18T23:36:21.156Z,94252.41
2022-10-18T23:38:48.206Z,94260.13
2022-10-18T23:41:16.412Z,94254.13
2022-10-18T23:43:43.643Z,94254.66
2022-10-18T23:46:11.357Z,94249.00
2022-10-18T23:48:38.480Z,94248.34
2022-10-18T23:51:06.327Z,94238.81
2022-10-18T23:53:33.697Z,94247.41
2022-10-18T23:56:06.145Z,94241.59
2022-10-18T23:58:34.859Z,94235.63
